Time;durP1;ratioP1;P1;durP2;ratioP2;P2;SDS_P1;SDS_P2;PMS_P1;PMS_P2;Temp;Humidity;BMP_temperature;BMP_pressure;BME280_temperature;BME280_humidity;BME280_pressure;Samples;Min_cycle;Max_cycle;Signal;HPM_P1;HPM_P2
2022/01/07 00:01:00;;;;;;;1.73;1.00;;;21.70;29.10;;;;;;5056474;28;20068;-49
2022/01/07 00:03:26;;;;;;;1.83;0.90;;;21.70;29.10;;;;;;5056076;28;20108;-53
2022/01/07 00:05:52;;;;;;;2.25;1.20;;;21.70;29.00;;;;;;5056316;28;20340;-50
2022/01/07 00:08:17;;;;;;;2.55;1.20;;;21.70;29.00;;;;;;5056059;28;20029;-53
2022/01/07 00:10:43;;;;;;;1.58;1.10;;;21.60;29.00;;;;;;5056995;28;20338;-48
2022/01/07 00:13:11;;;;;;;2.40;1.27;;;21.60;29.00;;;;;;5038394;28;20119;-50
2022/01/07 00:15:37;;;;;;;2.22;1.10;;;21.60;29.00;;;;;;5040097;28;20025;-49
2022/01/07 00:18:03;;;;;;;3.38;1.52;;;21.60;29.00;;;;;;5053599;28;20025;-51
2022/01/07 00:20:29;;;;;;;1.70;1.00;;;21.60;29.00;;;;;;5056540;28;20317;-47
2022/01/07 00:22:55;;;;;;;2.78;1.20;;;21.60;29.00;;;;;;5056110;28;20025;-49
2022/01/07 00:25:22;;;;;;;2.35;1.20;;;21.60;28.90;;;;;;5056500;28;20421;-47
2022/01/07 00:27:49;;;;;;;2.42;1.20;;;21.60;28.90;;;;;;5055381;28;20040;-50
2022/01/07 00:30:16;;;;;;;2.17;1.13;;;21.60;28.90;;;;;;5038688;28;20475;-49
2022/01/07 00:32:42;;;;;;;2.70;1.23;;;21.60;28.90;;;;;;5055548;28;20029;-50
2022/01/07 00:35:09;;;;;;;2.33;1.10;;;21.60;28.90;;;;;;5055650;28;20452;-52
2022/01/07 00:37:36;;;;;;;1.65;0.98;;;21.60;28.90;;;;;;5055185;28;20447;-46
2022/01/07 00:40:05;;;;;;;1.73;1.00;;;21.60;29.00;;;;;;5056107;28;20032;-48
2022/01/07 00:42:31;;;;;;;2.28;1.15;;;21.60;29.00;;;;;;5055897;28;20116;-50
2022/01/07 00:44:56;;;;;;;1.65;0.70;;;21.50;29.00;;;;;;5055761;28;20061;-49
2022/01/07 00:47:22;;;;;;;3.25;1.30;;;21.60;29.00;;;;;;5055290;28;20083;-50
2022/01/07 00:49:48;;;;;;;3.03;1.00;;;21.50;28.90;;;;;;5055315;28;20392;-47
2022/01/07 00:52:14;;;;;;;2.33;0.90;;;21.60;29.00;;;;;;5055982;28;20108;-47
2022/01/07 00:54:40;;;;;;;1.63;1.00;;;21.50;28.90;;;;;;5055193;28;20028;-53
2022/01/07 00:57:05;;;;;;;2.50;1.13;;;21.50;28.90;;;;;;5055187;28;20033;-56
2022/01/07 00:59:31;;;;;;;2.33;1.20;;;21.50;29.00;;;;;;5055783;28;20039;-52
2022/01/07 01:01:57;;;;;;;2.00;1.10;;;21.60;29.00;;;;;;5054352;28;20094;-52
2022/01/07 01:04:23;;;;;;;2.15;0.98;;;21.50;29.00;;;;;;5054915;28;20029;-54
2022/01/07 01:06:48;;;;;;;1.55;0.90;;;21.50;29.00;;;;;;5055205;28;20040;-52
2022/01/07 01:09:14;;;;;;;1.73;0.90;;;21.50;29.00;;;;;;5055474;28;20029;-48
2022/01/07 01:11:40;;;;;;;1.38;0.85;;;21.50;29.00;;;;;;5036690;28;20024;-50
2022/01/07 01:14:07;;;;;;;1.67;0.80;;;21.50;29.00;;;;;;5051125;28;20021;-51
2022/01/07 01:16:34;;;;;;;2.08;0.90;;;21.50;29.00;;;;;;5048065;28;20040;-49
2022/01/07 01:19:00;;;;;;;0.88;0.60;;;21.50;29.00;;;;;;5054932;28;20344;-50
2022/01/07 01:21:26;;;;;;;3.20;1.10;;;21.50;29.00;;;;;;5054736;28;20029;-48
2022/01/07 01:23:51;;;;;;;1.35;0.80;;;21.50;29.00;;;;;;5054624;28;20017;-55
2022/01/07 01:26:20;;;;;;;1.92;0.82;;;21.50;29.10;;;;;;5055164;28;20070;-50
2022/01/07 01:28:47;;;;;;;2.30;1.10;;;21.50;29.10;;;;;;5055062;28;20025;-52
2022/01/07 01:31:15;;;;;;;1.15;0.75;;;21.50;29.20;;;;;;5054774;28;20114;-50
2022/01/07 01:33:41;;;;;;;3.65;1.20;;;21.50;29.10;;;;;;5054779;28;20123;-54
2022/01/07 01:36:09;;;;;;;1.38;0.73;;;21.50;29.20;;;;;;5037006;28;20053;-51
2022/01/07 01:38:35;;;;;;;2.38;1.10;;;21.40;29.10;;;;;;5054403;28;20205;-47
2022/01/07 01:41:02;;;;;;;1.90;1.02;;;21.50;29.20;;;;;;5054916;28;20033;-50
2022/01/07 01:43:27;;;;;;;1.80;0.90;;;21.40;29.20;;;;;;5054945;28;20413;-53
2022/01/07 01:45:53;;;;;;;1.85;1.00;;;21.40;29.20;;;;;;5036238;28;20041;-53
2022/01/07 01:48:20;;;;;;;2.20;0.98;;;21.40;29.20;;;;;;5054429;28;20028;-46
2022/01/07 01:50:47;;;;;;;2.25;0.95;;;21.40;29.20;;;;;;5054475;28;20052;-52
2022/01/07 01:53:14;;;;;;;2.42;0.80;;;21.40;29.20;;;;;;5055192;28;20029;-53
2022/01/07 01:55:40;;;;;;;1.20;0.90;;;21.40;29.20;;;;;;5053836;28;20041;-46
2022/01/07 01:58:06;;;;;;;1.67;0.75;;;21.40;29.30;;;;;;5054970;28;20039;-48
2022/01/07 02:00:33;;;;;;;2.03;0.90;;;21.40;29.30;;;;;;5054007;28;20443;-47
2022/01/07 02:02:58;;;;;;;0.70;0.60;;;21.40;29.30;;;;;;5054701;28;20020;-48
2022/01/07 02:05:26;;;;;;;2.28;1.15;;;21.40;29.30;;;;;;5054101;28;20091;-54
2022/01/07 02:07:53;;;;;;;1.40;0.88;;;21.40;29.30;;;;;;5054666;28;20326;-49
2022/01/07 02:10:19;;;;;;;1.60;0.70;;;21.40;29.30;;;;;;5054214;28;20033;-48
2022/01/07 02:12:46;;;;;;;1.52;1.00;;;21.40;29.30;;;;;;5053873;28;20035;-50
2022/01/07 02:15:13;;;;;;;3.17;1.23;;;21.40;29.30;;;;;;5054418;28;20395;-51
2022/01/07 02:17:44;;;;;;;1.80;0.80;;;21.40;29.30;;;;;;5054046;28;20359;-50
2022/01/07 02:20:11;;;;;;;1.92;0.80;;;21.40;29.30;;;;;;5054005;28;20094;-55
2022/01/07 02:22:37;;;;;;;2.22;0.82;;;21.40;29.40;;;;;;5054582;28;20039;-47
2022/01/07 02:25:03;;;;;;;1.17;0.75;;;21.40;29.40;;;;;;5058462;28;20445;-49
2022/01/07 02:27:30;;;;;;;1.17;0.60;;;21.40;29.40;;;;;;5058348;28;20021;-46
2022/01/07 02:29:57;;;;;;;1.38;0.77;;;21.40;29.40;;;;;;5058349;28;20384;-47
2022/01/07 02:32:23;;;;;;;1.15;0.68;;;21.40;29.40;;;;;;5058050;28;20429;-49
2022/01/07 02:34:49;;;;;;;1.45;0.77;;;21.40;29.40;;;;;;5058035;28;20032;-55
2022/01/07 02:37:15;;;;;;;0.88;0.65;;;21.40;29.40;;;;;;5057900;28;20029;-48
2022/01/07 02:39:41;;;;;;;1.23;0.73;;;21.40;29.40;;;;;;5057686;28;20440;-52
2022/01/07 02:42:07;;;;;;;1.48;0.70;;;21.40;29.40;;;;;;5058612;28;20028;-46
2022/01/07 02:44:33;;;;;;;1.58;0.90;;;21.40;29.40;;;;;;5058043;28;20021;-47
2022/01/07 02:47:00;;;;;;;1.90;0.80;;;21.40;29.40;;;;;;5057552;28;20036;-54
2022/01/07 02:49:25;;;;;;;1.92;0.90;;;21.40;29.40;;;;;;5057969;28;20110;-49
2022/01/07 02:51:51;;;;;;;1.48;0.77;;;21.40;29.40;;;;;;5057790;28;20055;-47
2022/01/07 02:54:17;;;;;;;1.75;0.80;;;21.40;29.40;;;;;;5057594;28;20037;-51
2022/01/07 02:56:42;;;;;;;1.17;0.65;;;21.40;29.40;;;;;;5056998;28;20055;-51
2022/01/07 02:59:09;;;;;;;1.58;0.85;;;21.30;29.40;;;;;;5057748;28;20040;-50
2022/01/07 03:01:36;;;;;;;1.63;0.90;;;21.30;29.40;;;;;;5056861;28;20124;-50
2022/01/07 03:04:03;;;;;;;1.13;0.50;;;21.30;29.40;;;;;;5058252;28;20040;-53
2022/01/07 03:06:29;;;;;;;1.30;0.77;;;21.30;29.50;;;;;;5057792;28;20068;-53
2022/01/07 03:08:55;;;;;;;1.20;0.57;;;21.30;29.40;;;;;;5057723;28;20035;-55
2022/01/07 03:11:22;;;;;;;2.28;0.82;;;21.30;29.40;;;;;;5056825;28;20024;-55
2022/01/07 03:13:49;;;;;;;1.60;0.60;;;21.30;29.40;;;;;;5056178;28;20033;-47
2022/01/07 03:16:14;;;;;;;1.17;0.80;;;21.30;29.40;;;;;;5052765;28;20035;-53
2022/01/07 03:18:40;;;;;;;1.25;0.65;;;21.30;29.40;;;;;;5040071;28;20033;-50
2022/01/07 03:21:06;;;;;;;1.58;0.80;;;21.30;29.50;;;;;;5056777;28;20056;-47
2022/01/07 03:23:36;;;;;;;1.50;0.70;;;21.30;29.50;;;;;;5039839;28;20032;-54
2022/01/07 03:26:03;;;;;;;1.10;0.63;;;21.30;29.50;;;;;;5056797;28;20028;-53
2022/01/07 03:28:29;;;;;;;1.75;0.80;;;21.30;29.50;;;;;;5058247;28;20120;-46
2022/01/07 03:30:55;;;;;;;1.73;0.60;;;21.30;29.50;;;;;;5057439;28;20123;-56
2022/01/07 03:33:21;;;;;;;0.90;0.55;;;21.30;29.50;;;;;;5057114;28;20094;-52
2022/01/07 03:35:47;;;;;;;1.83;0.68;;;21.30;30.00;;;;;;5055915;28;20025;-53
2022/01/07 03:38:13;;;;;;;1.02;0.50;;;21.30;29.50;;;;;;5057089;28;20025;-51
2022/01/07 03:40:39;;;;;;;2.33;0.70;;;21.30;29.50;;;;;;5056769;28;20186;-49
2022/01/07 03:43:05;;;;;;;1.63;0.75;;;21.20;29.50;;;;;;5057316;28;20064;-53
2022/01/07 03:45:32;;;;;;;1.40;0.57;;;21.20;29.50;;;;;;5056940;28;20024;-46
2022/01/07 03:47:57;;;;;;;1.35;0.70;;;21.20;29.50;;;;;;5056757;28;20021;-56
2022/01/07 03:50:26;;;;;;;1.10;0.57;;;21.20;29.60;;;;;;5056670;28;20162;-51
2022/01/07 03:52:54;;;;;;;1.73;0.60;;;21.20;29.60;;;;;;5038881;28;20321;-52
2022/01/07 03:55:24;;;;;;;1.58;0.77;;;21.20;29.60;;;;;;5056617;28;20060;-52
2022/01/07 03:57:50;;;;;;;1.50;0.60;;;21.20;29.60;;;;;;5056334;28;20028;-53
2022/01/07 04:00:19;;;;;;;1.58;0.63;;;21.20;29.60;;;;;;5056560;28;20329;-48
2022/01/07 04:02:46;;;;;;;1.30;0.63;;;21.20;29.60;;;;;;5056773;28;20344;-49
2022/01/07 04:05:14;;;;;;;1.95;0.57;;;21.20;29.60;;;;;;5056115;28;20341;-50
2022/01/07 04:07:39;;;;;;;0.80;0.55;;;21.20;29.70;;;;;;5056684;28;20020;-51
2022/01/07 04:10:06;;;;;;;1.95;0.60;;;21.20;29.70;;;;;;5056693;28;20098;-52
2022/01/07 04:12:31;;;;;;;1.73;0.63;;;21.20;29.70;;;;;;5056475;28;20025;-49
2022/01/07 04:15:08;;;;;;;1.20;0.70;;;21.10;29.70;;;;;;5054887;28;20021;-49
2022/01/07 04:17:54;;;;;;;0.85;0.50;;;21.20;29.70;;;;;;5055617;28;20459;-51
2022/01/07 04:20:26;;;;;;;1.10;0.50;;;21.20;29.70;;;;;;5038697;28;20406;-54
2022/01/07 04:22:52;;;;;;;1.42;0.55;;;21.10;29.70;;;;;;5056184;28;20051;-50
2022/01/07 04:25:19;;;;;;;1.52;0.70;;;21.10;29.80;;;;;;5038714;28;20104;-47
2022/01/07 04:27:50;;;;;;;0.82;0.50;;;21.10;29.80;;;;;;5055842;28;20475;-51
2022/01/07 04:30:17;;;;;;;0.60;0.50;;;21.10;29.80;;;;;;5056183;28;20032;-52
2022/01/07 04:32:43;;;;;;;1.02;0.57;;;21.10;29.80;;;;;;5055674;28;20032;-46
2022/01/07 04:35:11;;;;;;;0.90;0.70;;;21.10;29.80;;;;;;5056110;28;20029;-54
2022/01/07 04:37:37;;;;;;;1.00;0.43;;;21.10;29.80;;;;;;5038206;28;20383;-54
2022/01/07 04:40:05;;;;;;;1.45;0.50;;;21.10;29.80;;;;;;5055891;28;20025;-51
2022/01/07 04:42:31;;;;;;;1.00;0.40;;;21.10;29.80;;;;;;5055898;28;20060;-47
2022/01/07 04:44:57;;;;;;;0.55;0.43;;;21.10;29.80;;;;;;5056238;28;20059;-53
2022/01/07 04:47:22;;;;;;;1.00;0.40;;;21.10;29.80;;;;;;5054438;28;20056;-53
2022/01/07 04:49:48;;;;;;;0.65;0.50;;;21.10;29.80;;;;;;5056427;28;20028;-53
2022/01/07 04:52:16;;;;;;;1.05;0.50;;;21.10;29.80;;;;;;5055702;28;20029;-53
2022/01/07 04:54:44;;;;;;;1.02;0.52;;;21.10;29.80;;;;;;5055861;28;20073;-53
2022/01/07 04:57:09;;;;;;;0.80;0.50;;;21.10;29.80;;;;;;5055420;28;20440;-48
2022/01/07 04:59:35;;;;;;;1.25;0.50;;;21.10;29.90;;;;;;5055345;28;20029;-47
2022/01/07 05:02:01;;;;;;;1.08;0.55;;;21.10;29.80;;;;;;5055596;28;20479;-49
2022/01/07 05:04:27;;;;;;;1.17;0.60;;;21.10;29.80;;;;;;5055438;28;20017;-48
2022/01/07 05:06:52;;;;;;;0.60;0.52;;;21.00;29.80;;;;;;5055384;28;20047;-55
2022/01/07 05:09:19;;;;;;;1.23;0.70;;;21.00;29.80;;;;;;5055036;28;20055;-48
2022/01/07 05:11:51;;;;;;;1.17;0.60;;;21.00;29.80;;;;;;5055190;28;20059;-55
2022/01/07 05:14:18;;;;;;;0.50;0.50;;;21.00;29.90;;;;;;5054379;28;20049;-52
2022/01/07 05:16:44;;;;;;;0.75;0.55;;;21.00;29.90;;;;;;5055130;28;20348;-48
2022/01/07 05:19:11;;;;;;;1.60;0.60;;;21.00;29.90;;;;;;5054687;28;20028;-55
2022/01/07 05:21:38;;;;;;;0.98;0.50;;;21.00;29.90;;;;;;5055267;28;20067;-54
2022/01/07 05:24:04;;;;;;;1.92;0.90;;;21.00;30.00;;;;;;5055355;28;20347;-49
2022/01/07 05:26:30;;;;;;;0.50;0.40;;;21.00;30.00;;;;;;5055598;28;20029;-49
2022/01/07 05:28:56;;;;;;;0.40;0.30;;;21.00;30.00;;;;;;5054465;28;20339;-56
2022/01/07 05:31:22;;;;;;;0.90;0.50;;;21.00;30.00;;;;;;5054950;28;20036;-56
2022/01/07 05:33:49;;;;;;;0.82;0.50;;;21.00;30.00;;;;;;5054329;28;20321;-53
2022/01/07 05:36:16;;;;;;;1.33;0.50;;;21.00;30.00;;;;;;5054904;28;20041;-51
2022/01/07 05:38:41;;;;;;;0.85;0.60;;;21.00;30.00;;;;;;5054721;28;20043;-57
2022/01/07 05:41:07;;;;;;;0.55;0.40;;;21.00;30.00;;;;;;5054953;28;20111;-50
2022/01/07 05:43:33;;;;;;;0.70;0.40;;;21.00;30.00;;;;;;5054654;28;20416;-48
2022/01/07 05:45:59;;;;;;;0.68;0.50;;;21.00;30.00;;;;;;5054580;28;20112;-49
2022/01/07 05:48:24;;;;;;;0.73;0.55;;;21.00;30.00;;;;;;5054379;28;20094;-55
2022/01/07 05:50:50;;;;;;;0.70;0.50;;;21.00;30.10;;;;;;5055307;28;20029;-55
2022/01/07 05:53:16;;;;;;;0.80;0.38;;;21.00;30.10;;;;;;5054420;28;20025;-48
2022/01/07 05:55:42;;;;;;;1.65;0.50;;;21.00;30.10;;;;;;5054235;28;20131;-46
2022/01/07 05:58:08;;;;;;;0.40;0.40;;;21.00;30.20;;;;;;5053694;28;20025;-50
2022/01/07 06:00:34;;;;;;;1.35;0.80;;;21.00;30.20;;;;;;5054633;28;20048;-46
2022/01/07 06:02:59;;;;;;;0.75;0.45;;;20.90;30.20;;;;;;5036557;28;20020;-50
2022/01/07 06:05:25;;;;;;;0.73;0.50;;;21.00;30.30;;;;;;5054741;28;20082;-47
2022/01/07 06:07:51;;;;;;;0.80;0.38;;;20.90;30.20;;;;;;5054795;28;20090;-47
2022/01/07 06:10:17;;;;;;;0.52;0.30;;;20.90;30.20;;;;;;5054225;28;20025;-46
2022/01/07 06:12:43;;;;;;;0.30;0.30;;;20.90;30.30;;;;;;5054226;28;20115;-48
2022/01/07 06:15:09;;;;;;;0.50;0.30;;;20.90;30.30;;;;;;5036760;28;20029;-52
2022/01/07 06:17:35;;;;;;;0.60;0.40;;;20.90;30.30;;;;;;5054023;28;21008;-55
2022/01/07 06:20:01;;;;;;;0.45;0.38;;;20.90;30.40;;;;;;5054989;28;20029;-50
2022/01/07 06:22:26;;;;;;;1.00;0.60;;;20.90;30.40;;;;;;5054119;28;20029;-49
2022/01/07 06:24:52;;;;;;;0.90;0.50;;;20.90;30.40;;;;;;5054478;28;20032;-51
2022/01/07 06:27:18;;;;;;;0.80;0.57;;;20.90;30.40;;;;;;5054128;28;20017;-52
2022/01/07 06:29:44;;;;;;;0.40;0.40;;;20.90;30.50;;;;;;5054476;28;20029;-51
2022/01/07 06:32:10;;;;;;;0.77;0.50;;;20.90;30.50;;;;;;5053673;28;20463;-52
2022/01/07 06:34:36;;;;;;;0.98;0.60;;;20.90;30.60;;;;;;5054635;28;20028;-48
2022/01/07 06:37:03;;;;;;;0.70;0.40;;;20.90;30.60;;;;;;5054217;28;20048;-49
2022/01/07 06:39:29;;;;;;;0.80;0.50;;;20.90;30.60;;;;;;5048547;28;20021;-51
2022/01/07 06:41:58;;;;;;;0.73;0.50;;;20.90;30.60;;;;;;5053771;28;20041;-52
2022/01/07 06:44:24;;;;;;;0.75;0.65;;;20.90;30.70;;;;;;5052357;28;20032;-49
2022/01/07 06:46:50;;;;;;;1.02;0.57;;;20.90;30.70;;;;;;5053440;28;20423;-49
2022/01/07 06:49:16;;;;;;;0.93;0.60;;;20.80;30.70;;;;;;5054201;28;20059;-49
2022/01/07 06:51:43;;;;;;;0.90;0.50;;;20.80;30.70;;;;;;5053929;28;20163;-47
2022/01/07 06:54:11;;;;;;;1.27;0.60;;;20.90;30.80;;;;;;5053571;28;20025;-50
2022/01/07 06:56:46;;;;;;;0.70;0.43;;;20.80;30.80;;;;;;5053478;28;20118;-52
2022/01/07 06:59:12;;;;;;;1.38;0.68;;;20.90;30.90;;;;;;5053745;28;20033;-53
2022/01/07 07:01:42;;;;;;;1.00;0.60;;;20.80;30.80;;;;;;5054349;28;20138;-50
2022/01/07 07:04:08;;;;;;;1.10;0.50;;;20.80;30.90;;;;;;5053786;28;20072;-48
2022/01/07 07:06:34;;;;;;;0.73;0.60;;;20.80;30.90;;;;;;5053936;28;20126;-51
2022/01/07 07:09:02;;;;;;;1.00;0.77;;;20.80;30.90;;;;;;5052623;28;20436;-51
2022/01/07 07:11:28;;;;;;;0.98;0.50;;;20.80;31.00;;;;;;5057472;28;20029;-51
2022/01/07 07:13:54;;;;;;;0.80;0.50;;;20.80;31.00;;;;;;5057263;28;20031;-48
2022/01/07 07:16:20;;;;;;;0.88;0.50;;;20.80;31.00;;;;;;5057485;28;20344;-48
2022/01/07 07:18:47;;;;;;;0.60;0.50;;;20.80;31.00;;;;;;5056913;28;20108;-55
2022/01/07 07:21:13;;;;;;;0.82;0.52;;;20.80;31.00;;;;;;5056951;28;20045;-51
2022/01/07 07:23:38;;;;;;;1.65;0.80;;;20.80;31.10;;;;;;5039350;28;20043;-50
2022/01/07 07:26:04;;;;;;;1.17;0.70;;;20.80;31.10;;;;;;5057025;28;20057;-46
2022/01/07 07:28:30;;;;;;;0.77;0.50;;;20.80;31.10;;;;;;5056851;28;20035;-55
2022/01/07 07:31:00;;;;;;;1.05;0.60;;;20.80;31.20;;;;;;5057039;28;20444;-54
2022/01/07 07:38:44;;;;;;;0.68;0.55;;;20.80;31.30;;;;;;5050224;28;20051;-48
2022/01/07 07:41:11;;;;;;;1.10;0.75;;;20.80;31.30;;;;;;5056344;28;20052;-50
2022/01/07 07:43:38;;;;;;;0.73;0.40;;;20.80;31.30;;;;;;5056811;28;20032;-54
2022/01/07 07:46:05;;;;;;;2.00;0.93;;;20.80;31.30;;;;;;5056287;28;20047;-47
2022/01/07 07:48:32;;;;;;;0.90;0.50;;;20.80;31.40;;;;;;5056489;28;20025;-52
2022/01/07 07:50:58;;;;;;;1.35;0.73;;;20.80;31.30;;;;;;5056390;28;20021;-50
2022/01/07 07:53:25;;;;;;;1.85;0.70;;;20.80;31.40;;;;;;5056545;28;20424;-50
2022/01/07 07:55:53;;;;;;;0.90;0.60;;;20.80;31.40;;;;;;5055215;28;20041;-50
2022/01/07 07:58:23;;;;;;;1.50;0.68;;;20.80;31.50;;;;;;5056034;28;20108;-52
2022/01/07 08:00:50;;;;;;;1.75;0.70;;;20.70;31.50;;;;;;5055548;28;20036;-55
2022/01/07 08:03:16;;;;;;;1.48;0.70;;;20.70;31.60;;;;;;5055255;28;20025;-56
2022/01/07 08:05:42;;;;;;;1.67;0.80;;;20.70;31.70;;;;;;5056800;28;20029;-55
2022/01/07 08:08:08;;;;;;;1.92;0.80;;;20.70;31.80;;;;;;5055422;28;20032;-52
2022/01/07 08:10:35;;;;;;;1.42;0.70;;;20.70;31.90;;;;;;5055994;28;20025;-49
2022/01/07 08:18:20;;;;;;;1.85;0.85;;;20.90;32.00;;;;;;5039114;28;20028;-56
2022/01/07 08:20:46;;;;;;;0.90;0.60;;;20.90;32.00;;;;;;5054817;28;20441;-48
2022/01/07 08:23:12;;;;;;;3.40;0.70;;;21.00;32.00;;;;;;5038947;28;20452;-49
2022/01/07 08:25:38;;;;;;;1.75;0.80;;;21.10;31.90;;;;;;5055992;28;20336;-53
2022/01/07 08:28:05;;;;;;;1.50;0.70;;;21.20;32.00;;;;;;5056068;28;20040;-53
2022/01/07 08:30:37;;;;;;;1.77;0.60;;;21.30;31.90;;;;;;5055615;28;20110;-48
2022/01/07 08:35:51;;;;;;;1.88;0.80;;;21.50;31.90;;;;;;5047836;28;20050;-53
2022/01/07 08:38:16;;;;;;;1.67;0.60;;;21.60;31.80;;;;;;5055627;28;20029;-57
2022/01/07 08:40:42;;;;;;;1.70;0.70;;;21.70;31.80;;;;;;5055000;28;20032;-51
2022/01/07 08:43:08;;;;;;;1.15;0.68;;;21.70;31.80;;;;;;5045189;28;20093;-47
2022/01/07 08:45:35;;;;;;;1.35;0.80;;;21.80;31.80;;;;;;5039089;28;20428;-47
2022/01/07 08:48:00;;;;;;;1.02;0.70;;;21.90;31.70;;;;;;5054487;28;20052;-48
2022/01/07 08:50:27;;;;;;;2.53;1.00;;;22.00;31.70;;;;;;5054299;28;20021;-52
2022/01/07 08:52:53;;;;;;;1.02;0.80;;;22.10;31.70;;;;;;5055463;28;20025;-50
2022/01/07 08:55:19;;;;;;;1.73;0.73;;;22.10;31.50;;;;;;5052742;28;20461;-54
2022/01/07 08:57:45;;;;;;;2.67;1.23;;;22.20;31.40;;;;;;5042848;28;20039;-49
2022/01/07 09:00:12;;;;;;;2.28;0.90;;;22.30;32.00;;;;;;5036297;28;20029;-52
2022/01/07 09:02:38;;;;;;;1.65;0.90;;;22.40;31.30;;;;;;5055281;28;20020;-50
2022/01/07 09:05:04;;;;;;;1.20;0.85;;;22.50;31.30;;;;;;5050739;28;20021;-52
2022/01/07 09:07:30;;;;;;;2.03;1.00;;;22.50;31.20;;;;;;5036823;28;20013;-54
2022/01/07 09:09:56;;;;;;;3.92;1.23;;;22.60;31.20;;;;;;5042112;28;20037;-50
2022/01/07 09:12:21;;;;;;;1.58;0.90;;;22.60;31.10;;;;;;5049935;28;20047;-59
2022/01/07 09:14:47;;;;;;;3.63;1.20;;;22.70;31.10;;;;;;5043833;28;20021;-52
2022/01/07 09:17:13;;;;;;;1.50;0.77;;;22.70;31.00;;;;;;5035055;28;20126;-54
2022/01/07 09:19:39;;;;;;;1.60;0.80;;;22.80;31.00;;;;;;5047847;28;20021;-50
2022/01/07 09:22:05;;;;;;;3.35;0.90;;;22.90;31.00;;;;;;5055245;28;20545;-50
2022/01/07 09:24:31;;;;;;;2.60;0.90;;;22.90;30.80;;;;;;5045371;28;20022;-47
2022/01/07 09:26:58;;;;;;;1.45;0.90;;;23.00;30.80;;;;;;5035288;28;20037;-51
2022/01/07 09:29:23;;;;;;;1.60;0.82;;;23.00;30.80;;;;;;5043750;28;20036;-48
2022/01/07 09:31:51;;;;;;;1.15;0.68;;;23.10;30.80;;;;;;5054969;28;20028;-53
2022/01/07 09:34:17;;;;;;;1.23;0.68;;;23.20;30.70;;;;;;5035464;28;20336;-56
2022/01/07 09:36:43;;;;;;;2.15;0.80;;;23.20;30.60;;;;;;5036944;28;20498;-51
2022/01/07 09:39:09;;;;;;;1.50;0.70;;;23.30;30.60;;;;;;5054230;28;20028;-48
2022/01/07 09:41:34;;;;;;;1.88;0.77;;;23.30;30.50;;;;;;5054855;28;20090;-54
2022/01/07 09:44:01;;;;;;;2.25;1.10;;;23.40;30.50;;;;;;5053920;28;20094;-50
2022/01/07 09:46:28;;;;;;;1.65;0.75;;;23.40;30.40;;;;;;5055063;28;20048;-54
2022/01/07 09:48:54;;;;;;;1.42;0.70;;;23.50;30.40;;;;;;5054745;28;20432;-51
2022/01/07 09:51:22;;;;;;;1.77;0.77;;;23.50;30.20;;;;;;5054570;28;20025;-48
2022/01/07 09:53:48;;;;;;;2.08;0.88;;;23.60;30.20;;;;;;5036522;28;20325;-57
2022/01/07 09:56:14;;;;;;;2.00;0.95;;;23.70;30.20;;;;;;5055231;28;20044;-47
2022/01/07 09:58:39;;;;;;;1.60;0.77;;;23.70;30.10;;;;;;5053980;28;20036;-53
2022/01/07 10:01:09;;;;;;;1.48;0.60;;;23.80;30.00;;;;;;5054376;28;20032;-50
2022/01/07 10:03:43;;;;;;;1.50;0.82;;;23.80;30.00;;;;;;5053838;28;20333;-53
2022/01/07 10:06:25;;;;;;;1.50;0.68;;;23.90;30.00;;;;;;5051318;28;20033;-52
2022/01/07 10:09:07;;;;;;;1.30;0.68;;;24.00;29.90;;;;;;5037061;28;20025;-51
2022/01/07 10:11:33;;;;;;;1.75;0.98;;;24.00;29.90;;;;;;5054398;28;20436;-46
2022/01/07 10:14:21;;;;;;;2.65;1.05;;;24.10;29.90;;;;;;5053807;28;20028;-50
2022/01/07 10:16:56;;;;;;;1.58;0.77;;;24.10;29.80;;;;;;5054461;28;20029;-54
2022/01/07 10:19:32;;;;;;;1.92;0.80;;;24.10;29.80;;;;;;5054922;28;20025;-52
2022/01/07 10:22:00;;;;;;;1.67;0.88;;;24.10;29.80;;;;;;5054107;28;20513;-50
2022/01/07 10:24:26;;;;;;;2.17;1.00;;;24.20;29.80;;;;;;5054534;28;20037;-51
2022/01/07 10:27:11;;;;;;;1.65;0.90;;;24.10;29.70;;;;;;5054340;28;20086;-47
2022/01/07 10:29:42;;;;;;;3.20;0.90;;;24.20;29.70;;;;;;5054715;28;20078;-49
2022/01/07 10:32:29;;;;;;;2.67;1.00;;;24.10;29.70;;;;;;5054619;28;20025;-54
2022/01/07 10:35:07;;;;;;;1.65;0.93;;;24.10;29.70;;;;;;5053463;28;20033;-48
2022/01/07 10:37:45;;;;;;;1.27;0.68;;;24.10;29.70;;;;;;5054276;28;20032;-50
2022/01/07 10:40:22;;;;;;;1.40;0.80;;;24.10;29.80;;;;;;5053132;28;20035;-50
2022/01/07 10:42:48;;;;;;;1.70;0.70;;;24.10;29.80;;;;;;5048202;28;20029;-46
2022/01/07 10:45:14;;;;;;;4.35;0.85;;;24.00;29.80;;;;;;5055171;28;20024;-49
2022/01/07 10:47:40;;;;;;;1.85;0.85;;;24.00;29.80;;;;;;5056348;28;20082;-48
2022/01/07 10:50:24;;;;;;;1.48;0.90;;;24.00;29.90;;;;;;5058041;28;20037;-46
2022/01/07 10:52:51;;;;;;;1.98;0.75;;;24.00;29.90;;;;;;5070887;28;20039;-47
2022/01/07 10:55:21;;;;;;;1.23;0.70;;;23.90;29.90;;;;;;5052707;28;20344;-47
2022/01/07 10:57:49;;;;;;;1.73;0.73;;;23.90;29.90;;;;;;5057504;28;20095;-47
2022/01/07 11:00:21;;;;;;;1.95;0.82;;;23.80;30.00;;;;;;5056844;28;20447;-46
2022/01/07 11:02:47;;;;;;;2.38;1.00;;;23.70;30.00;;;;;;5057222;28;20107;-50
2022/01/07 11:05:13;;;;;;;3.50;0.88;;;23.70;30.00;;;;;;5057280;28;20379;-47
2022/01/07 11:07:40;;;;;;;2.28;1.00;;;23.60;30.00;;;;;;5057122;28;20439;-54
2022/01/07 11:10:08;;;;;;;1.52;0.80;;;23.60;30.10;;;;;;5039662;28;20155;-51
2022/01/07 11:12:35;;;;;;;1.52;0.77;;;23.50;30.10;;;;;;5058208;28;20029;-50
2022/01/07 11:15:05;;;;;;;1.30;0.50;;;23.50;30.20;;;;;;5048236;28;20104;-55
2022/01/07 11:17:31;;;;;;;1.33;0.75;;;23.50;30.20;;;;;;5047019;28;20033;-54
2022/01/07 11:19:59;;;;;;;3.40;0.90;;;23.40;30.30;;;;;;5057196;28;20028;-50
2022/01/07 11:22:26;;;;;;;1.45;0.80;;;23.40;30.40;;;;;;5056173;28;20040;-49
2022/01/07 11:25:04;;;;;;;1.98;1.00;;;23.30;30.40;;;;;;5055928;28;20039;-50
2022/01/07 11:27:30;;;;;;;2.22;0.98;;;23.30;30.40;;;;;;5036880;28;20436;-49
2022/01/07 11:30:01;;;;;;;1.85;0.73;;;23.30;30.40;;;;;;5056142;28;20025;-48
2022/01/07 11:32:28;;;;;;;1.38;0.85;;;23.30;30.50;;;;;;5056201;28;20036;-50
2022/01/07 11:34:55;;;;;;;1.67;0.90;;;23.30;30.50;;;;;;5056225;28;20028;-47
2022/01/07 11:37:40;;;;;;;1.83;0.65;;;23.30;30.50;;;;;;5038176;28;20021;-50
2022/01/07 11:40:07;;;;;;;1.35;0.65;;;23.30;30.50;;;;;;5057039;28;20424;-54
2022/01/07 11:42:43;;;;;;;0.82;0.50;;;23.20;30.50;;;;;;5056174;28;20033;-51
2022/01/07 11:45:28;;;;;;;2.33;0.90;;;23.20;31.10;;;;;;5056023;28;20036;-51
2022/01/07 11:48:22;;;;;;;1.35;0.60;;;23.20;30.50;;;;;;5056979;28;20305;-57
2022/01/07 11:51:03;;;;;;;2.58;1.00;;;23.20;30.50;;;;;;5038530;28;20036;-57
2022/01/07 11:53:41;;;;;;;1.08;0.70;;;23.20;30.50;;;;;;5054800;28;20327;-54
2022/01/07 11:56:19;;;;;;;1.35;0.80;;;23.20;30.50;;;;;;5054559;28;20048;-55
2022/01/07 11:58:54;;;;;;;1.63;0.95;;;23.20;30.50;;;;;;5056618;28;20029;-52
2022/01/07 12:01:32;;;;;;;1.98;0.95;;;23.20;30.50;;;;;;5054870;28;20089;-52
2022/01/07 12:04:21;;;;;;;1.48;0.85;;;23.20;30.50;;;;;;5036279;28;20021;-57
2022/01/07 12:06:50;;;;;;;1.48;0.68;;;23.20;30.40;;;;;;5055423;28;20036;-56
2022/01/07 12:09:21;;;;;;;1.83;0.70;;;23.20;30.50;;;;;;5037652;28;20449;-50
2022/01/07 12:12:03;;;;;;;2.10;0.70;;;23.20;30.50;;;;;;5042109;28;20079;-51
2022/01/07 12:14:43;;;;;;;1.40;0.70;;;23.20;30.40;;;;;;5053672;28;20037;-48
2022/01/07 12:17:13;;;;;;;1.85;0.70;;;23.20;30.40;;;;;;5054419;28;20048;-48
2022/01/07 12:19:49;;;;;;;1.08;0.55;;;23.20;30.40;;;;;;5054414;28;20048;-50
2022/01/07 12:22:20;;;;;;;0.80;0.60;;;23.20;30.40;;;;;;5052407;28;20643;-51
2022/01/07 12:24:48;;;;;;;2.05;0.93;;;23.20;30.40;;;;;;5035334;28;20344;-52
2022/01/07 12:27:22;;;;;;;2.30;0.73;;;23.20;30.40;;;;;;5033274;28;20024;-50
2022/01/07 12:29:53;;;;;;;1.45;0.60;;;23.20;30.30;;;;;;5047886;28;20068;-50
2022/01/07 12:32:20;;;;;;;1.00;0.70;;;23.20;30.30;;;;;;5048603;28;20048;-55
2022/01/07 12:34:49;;;;;;;1.92;0.57;;;23.20;30.40;;;;;;5046786;28;20094;-54
2022/01/07 12:37:23;;;;;;;1.08;0.60;;;23.20;30.40;;;;;;5052582;28;20021;-54
2022/01/07 12:39:51;;;;;;;1.80;0.80;;;23.10;30.30;;;;;;5035328;28;20020;-56
2022/01/07 12:42:18;;;;;;;3.03;0.70;;;23.10;30.30;;;;;;5054886;28;20292;-57
2022/01/07 12:44:46;;;;;;;1.45;0.70;;;23.10;30.30;;;;;;5054281;28;20075;-51
2022/01/07 12:47:16;;;;;;;1.00;0.50;;;23.10;30.30;;;;;;5054440;28;20021;-46
2022/01/07 12:49:43;;;;;;;1.50;0.70;;;23.10;30.20;;;;;;5054339;28;20020;-51
2022/01/07 12:52:16;;;;;;;1.95;0.70;;;23.10;30.30;;;;;;5053426;28;20116;-48
2022/01/07 12:54:55;;;;;;;1.50;0.63;;;23.10;30.30;;;;;;5051409;28;20035;-48
2022/01/07 12:57:42;;;;;;;1.25;0.70;;;23.10;30.40;;;;;;5048445;28;20103;-52
2022/01/07 13:00:22;;;;;;;1.52;0.60;;;23.10;30.40;;;;;;5036627;28;20024;-49
2022/01/07 13:02:54;;;;;;;1.58;0.52;;;23.10;30.40;;;;;;5051509;28;20033;-52
2022/01/07 13:05:31;;;;;;;2.25;0.65;;;23.10;30.40;;;;;;5054322;28;20052;-51